sensor_id;sensor_type;location;lat;lon;timestamp;P1;durP1;ratioP1;P2;durP2;ratioP2
45760;SDS011;31471;51.040;14.414;2022-08-19T00:03:45;11.88;;;10.07;;
45760;SDS011;31471;51.040;14.414;2022-08-19T00:06:10;12.40;;;9.98;;
45760;SDS011;31471;51.040;14.414;2022-08-19T00:11:01;12.38;;;10.07;;
45760;SDS011;31471;51.040;14.414;2022-08-19T00:15:54;13.45;;;10.05;;
45760;SDS011;31471;51.040;14.414;2022-08-19T00:18:20;11.75;;;10.52;;
45760;SDS011;31471;51.040;14.414;2022-08-19T00:23:11;13.98;;;11.70;;
45760;SDS011;31471;51.040;14.414;2022-08-19T00:25:36;13.35;;;10.70;;
45760;SDS011;31471;51.040;14.414;2022-08-19T00:30:29;13.00;;;10.48;;
45760;SDS011;31471;51.040;14.414;2022-08-19T00:32:55;12.77;;;10.77;;
45760;SDS011;31471;51.040;14.414;2022-08-19T00:35:21;12.68;;;10.52;;
45760;SDS011;31471;51.040;14.414;2022-08-19T00:37:48;14.80;;;11.88;;
45760;SDS011;31471;51.040;14.414;2022-08-19T00:40:14;13.45;;;11.23;;
45760;SDS011;31471;51.040;14.414;2022-08-19T00:42:43;13.43;;;11.27;;
45760;SDS011;31471;51.040;14.414;2022-08-19T00:45:12;14.18;;;10.85;;
45760;SDS011;31471;51.040;14.414;2022-08-19T00:50:13;17.95;;;10.70;;
45760;SDS011;31471;51.040;14.414;2022-08-19T00:52:42;13.25;;;10.90;;
45760;SDS011;31471;51.040;14.414;2022-08-19T00:55:21;12.77;;;11.30;;
45760;SDS011;31471;51.040;14.414;2022-08-19T00:57:51;15.43;;;11.38;;
45760;SDS011;31471;51.040;14.414;2022-08-19T01:00:21;16.13;;;12.35;;
45760;SDS011;31471;51.040;14.414;2022-08-19T01:02:48;15.13;;;11.90;;
45760;SDS011;31471;51.040;14.414;2022-08-19T01:07:43;13.85;;;11.25;;
45760;SDS011;31471;51.040;14.414;2022-08-19T01:10:14;16.10;;;12.15;;
45760;SDS011;31471;51.040;14.414;2022-08-19T01:12:41;14.00;;;11.88;;
45760;SDS011;31471;51.040;14.414;2022-08-19T01:17:34;16.83;;;11.00;;
45760;SDS011;31471;51.040;14.414;2022-08-19T01:20:03;15.48;;;11.70;;
45760;SDS011;31471;51.040;14.414;2022-08-19T01:22:30;14.20;;;12.18;;
45760;SDS011;31471;51.040;14.414;2022-08-19T01:25:01;19.00;;;13.07;;
45760;SDS011;31471;51.040;14.414;2022-08-19T01:27:36;15.63;;;13.15;;
45760;SDS011;31471;51.040;14.414;2022-08-19T01:30:07;15.75;;;12.68;;
45760;SDS011;31471;51.040;14.414;2022-08-19T01:32:34;17.30;;;13.00;;
45760;SDS011;31471;51.040;14.414;2022-08-19T01:37:27;14.88;;;12.30;;
45760;SDS011;31471;51.040;14.414;2022-08-19T01:39:53;16.40;;;13.30;;
45760;SDS011;31471;51.040;14.414;2022-08-19T01:44:45;18.42;;;14.48;;
45760;SDS011;31471;51.040;14.414;2022-08-19T01:49:36;19.02;;;13.45;;
45760;SDS011;31471;51.040;14.414;2022-08-19T01:54:28;18.23;;;13.80;;
45760;SDS011;31471;51.040;14.414;2022-08-19T01:59:24;15.88;;;13.07;;
45760;SDS011;31471;51.040;14.414;2022-08-19T02:04:15;21.55;;;14.80;;
45760;SDS011;31471;51.040;14.414;2022-08-19T02:09:07;20.85;;;13.90;;
45760;SDS011;31471;51.040;14.414;2022-08-19T02:11:34;19.85;;;14.43;;
45760;SDS011;31471;51.040;14.414;2022-08-19T02:14:02;19.98;;;15.55;;
45760;SDS011;31471;51.040;14.414;2022-08-19T02:16:30;19.05;;;14.77;;
45760;SDS011;31471;51.040;14.414;2022-08-19T02:21:23;22.23;;;14.77;;
45760;SDS011;31471;51.040;14.414;2022-08-19T02:23:49;19.95;;;15.13;;
45760;SDS011;31471;51.040;14.414;2022-08-19T02:26:15;23.00;;;16.27;;
45760;SDS011;31471;51.040;14.414;2022-08-19T02:28:42;19.73;;;15.25;;
45760;SDS011;31471;51.040;14.414;2022-08-19T02:31:08;20.38;;;15.15;;
45760;SDS011;31471;51.040;14.414;2022-08-19T02:33:42;21.55;;;15.60;;
45760;SDS011;31471;51.040;14.414;2022-08-19T02:36:09;22.80;;;16.65;;
45760;SDS011;31471;51.040;14.414;2022-08-19T02:38:36;21.58;;;16.42;;
45760;SDS011;31471;51.040;14.414;2022-08-19T02:43:31;21.30;;;15.43;;
45760;SDS011;31471;51.040;14.414;2022-08-19T02:45:57;19.38;;;15.43;;
45760;SDS011;31471;51.040;14.414;2022-08-19T02:50:50;24.55;;;16.30;;
45760;SDS011;31471;51.040;14.414;2022-08-19T02:53:21;20.05;;;16.17;;
45760;SDS011;31471;51.040;14.414;2022-08-19T02:55:48;22.30;;;15.80;;
45760;SDS011;31471;51.040;14.414;2022-08-19T02:58:14;21.38;;;16.60;;
45760;SDS011;31471;51.040;14.414;2022-08-19T03:00:44;20.80;;;16.15;;
45760;SDS011;31471;51.040;14.414;2022-08-19T03:03:14;22.02;;;16.77;;
45760;SDS011;31471;51.040;14.414;2022-08-19T03:05:40;21.70;;;17.10;;
45760;SDS011;31471;51.040;14.414;2022-08-19T03:10:32;22.30;;;17.70;;
45760;SDS011;31471;51.040;14.414;2022-08-19T03:15:23;24.23;;;17.05;;
45760;SDS011;31471;51.040;14.414;2022-08-19T03:20:15;22.40;;;17.48;;
45760;SDS011;31471;51.040;14.414;2022-08-19T03:25:06;24.80;;;18.05;;
45760;SDS011;31471;51.040;14.414;2022-08-19T03:29:57;24.33;;;18.02;;
45760;SDS011;31471;51.040;14.414;2022-08-19T03:34:48;25.65;;;19.00;;
45760;SDS011;31471;51.040;14.414;2022-08-19T03:37:15;25.75;;;18.75;;
45760;SDS011;31471;51.040;14.414;2022-08-19T03:42:07;26.02;;;18.40;;
45760;SDS011;31471;51.040;14.414;2022-08-19T03:44:34;26.45;;;19.88;;
45760;SDS011;31471;51.040;14.414;2022-08-19T03:47:02;21.58;;;17.20;;
45760;SDS011;31471;51.040;14.414;2022-08-19T03:49:29;21.85;;;17.98;;
45760;SDS011;31471;51.040;14.414;2022-08-19T03:51:58;21.00;;;16.17;;
45760;SDS011;31471;51.040;14.414;2022-08-19T03:54:25;22.50;;;17.17;;
45760;SDS011;31471;51.040;14.414;2022-08-19T03:56:53;26.60;;;19.38;;
45760;SDS011;31471;51.040;14.414;2022-08-19T03:59:24;26.05;;;19.15;;
45760;SDS011;31471;51.040;14.414;2022-08-19T04:01:56;22.23;;;17.33;;
45760;SDS011;31471;51.040;14.414;2022-08-19T04:04:22;24.90;;;18.60;;
45760;SDS011;31471;51.040;14.414;2022-08-19T04:09:14;24.40;;;18.40;;
45760;SDS011;31471;51.040;14.414;2022-08-19T04:11:41;25.90;;;19.48;;
45760;SDS011;31471;51.040;14.414;2022-08-19T04:14:10;28.92;;;20.67;;
45760;SDS011;31471;51.040;14.414;2022-08-19T04:16:37;30.60;;;21.42;;
45760;SDS011;31471;51.040;14.414;2022-08-19T04:21:30;27.67;;;20.08;;
45760;SDS011;31471;51.040;14.414;2022-08-19T04:26:26;25.15;;;18.75;;
45760;SDS011;31471;51.040;14.414;2022-08-19T04:28:56;26.30;;;19.08;;
45760;SDS011;31471;51.040;14.414;2022-08-19T04:31:24;26.42;;;19.60;;
45760;SDS011;31471;51.040;14.414;2022-08-19T04:33:59;24.40;;;19.95;;
45760;SDS011;31471;51.040;14.414;2022-08-19T04:36:27;24.95;;;19.20;;
45760;SDS011;31471;51.040;14.414;2022-08-19T04:38:55;23.77;;;17.63;;
45760;SDS011;31471;51.040;14.414;2022-08-19T04:41:22;23.88;;;18.60;;
45760;SDS011;31471;51.040;14.414;2022-08-19T04:44:07;23.92;;;18.10;;
45760;SDS011;31471;51.040;14.414;2022-08-19T04:46:33;28.00;;;20.25;;
45760;SDS011;31471;51.040;14.414;2022-08-19T04:51:25;25.23;;;18.80;;
45760;SDS011;31471;51.040;14.414;2022-08-19T04:56:17;30.17;;;19.52;;
45760;SDS011;31471;51.040;14.414;2022-08-19T04:58:45;31.38;;;20.65;;
45760;SDS011;31471;51.040;14.414;2022-08-19T05:01:12;28.95;;;19.67;;
45760;SDS011;31471;51.040;14.414;2022-08-19T05:03:41;31.00;;;21.10;;
45760;SDS011;31471;51.040;14.414;2022-08-19T05:06:08;26.35;;;19.38;;
45760;SDS011;31471;51.040;14.414;2022-08-19T05:08:37;30.75;;;21.63;;
45760;SDS011;31471;51.040;14.414;2022-08-19T05:11:09;31.30;;;21.10;;
45760;SDS011;31471;51.040;14.414;2022-08-19T05:13:37;29.80;;;19.90;;
45760;SDS011;31471;51.040;14.414;2022-08-19T05:18:29;27.27;;;18.55;;
45760;SDS011;31471;51.040;14.414;2022-08-19T05:21:14;28.77;;;20.25;;
45760;SDS011;31471;51.040;14.414;2022-08-19T05:23:59;35.20;;;22.58;;
45760;SDS011;31471;51.040;14.414;2022-08-19T05:26:26;30.90;;;20.70;;
45760;SDS011;31471;51.040;14.414;2022-08-19T05:31:18;32.20;;;20.42;;
45760;SDS011;31471;51.040;14.414;2022-08-19T05:33:44;32.58;;;20.58;;
45760;SDS011;31471;51.040;14.414;2022-08-19T05:38:35;33.53;;;21.40;;
45760;SDS011;31471;51.040;14.414;2022-08-19T05:43:37;32.30;;;20.27;;
45760;SDS011;31471;51.040;14.414;2022-08-19T05:48:32;31.65;;;20.50;;
45760;SDS011;31471;51.040;14.414;2022-08-19T05:51:03;31.67;;;21.45;;
45760;SDS011;31471;51.040;14.414;2022-08-19T05:53:31;30.73;;;19.98;;
45760;SDS011;31471;51.040;14.414;2022-08-19T05:55:57;31.67;;;20.67;;
45760;SDS011;31471;51.040;14.414;2022-08-19T06:00:49;25.55;;;19.02;;
45760;SDS011;31471;51.040;14.414;2022-08-19T06:05:41;32.70;;;21.15;;
45760;SDS011;31471;51.040;14.414;2022-08-19T06:08:07;30.77;;;19.92;;
45760;SDS011;31471;51.040;14.414;2022-08-19T06:12:58;29.77;;;20.58;;
45760;SDS011;31471;51.040;14.414;2022-08-19T06:17:51;28.48;;;18.38;;
45760;SDS011;31471;51.040;14.414;2022-08-19T06:22:44;31.40;;;19.52;;
45760;SDS011;31471;51.040;14.414;2022-08-19T06:25:12;29.05;;;20.77;;
45760;SDS011;31471;51.040;14.414;2022-08-19T06:27:39;27.95;;;17.90;;
45760;SDS011;31471;51.040;14.414;2022-08-19T06:30:06;27.25;;;18.95;;
45760;SDS011;31471;51.040;14.414;2022-08-19T06:32:32;28.52;;;19.85;;
45760;SDS011;31471;51.040;14.414;2022-08-19T06:37:23;25.25;;;17.38;;
45760;SDS011;31471;51.040;14.414;2022-08-19T06:42:15;24.27;;;17.33;;
45760;SDS011;31471;51.040;14.414;2022-08-19T06:44:44;25.75;;;17.58;;
45760;SDS011;31471;51.040;14.414;2022-08-19T06:47:12;26.48;;;18.33;;
45760;SDS011;31471;51.040;14.414;2022-08-19T06:49:40;24.92;;;16.75;;
45760;SDS011;31471;51.040;14.414;2022-08-19T06:52:06;23.88;;;16.77;;
45760;SDS011;31471;51.040;14.414;2022-08-19T06:56:57;20.25;;;13.85;;
45760;SDS011;31471;51.040;14.414;2022-08-19T06:59:27;17.13;;;13.18;;
45760;SDS011;31471;51.040;14.414;2022-08-19T07:01:57;14.52;;;11.55;;
45760;SDS011;31471;51.040;14.414;2022-08-19T07:04:25;15.18;;;11.43;;
45760;SDS011;31471;51.040;14.414;2022-08-19T07:06:57;14.43;;;10.90;;
45760;SDS011;31471;51.040;14.414;2022-08-19T07:09:28;15.32;;;11.55;;
45760;SDS011;31471;51.040;14.414;2022-08-19T07:11:54;14.77;;;11.27;;
45760;SDS011;31471;51.040;14.414;2022-08-19T07:14:22;15.13;;;11.25;;
45760;SDS011;31471;51.040;14.414;2022-08-19T07:16:50;13.05;;;10.88;;
45760;SDS011;31471;51.040;14.414;2022-08-19T07:19:17;11.48;;;9.57;;
45760;SDS011;31471;51.040;14.414;2022-08-19T07:21:43;12.98;;;10.75;;
45760;SDS011;31471;51.040;14.414;2022-08-19T07:26:38;10.73;;;8.02;;
45760;SDS011;31471;51.040;14.414;2022-08-19T07:29:06;10.18;;;7.95;;
45760;SDS011;31471;51.040;14.414;2022-08-19T07:34:02;7.68;;;6.72;;
45760;SDS011;31471;51.040;14.414;2022-08-19T07:36:33;7.75;;;6.55;;
45760;SDS011;31471;51.040;14.414;2022-08-19T07:39:02;7.75;;;6.22;;
45760;SDS011;31471;51.040;14.414;2022-08-19T07:41:34;7.30;;;6.10;;
45760;SDS011;31471;51.040;14.414;2022-08-19T07:44:02;6.70;;;6.00;;
45760;SDS011;31471;51.040;14.414;2022-08-19T07:46:32;7.68;;;6.32;;
45760;SDS011;31471;51.040;14.414;2022-08-19T07:48:59;8.02;;;5.70;;
45760;SDS011;31471;51.040;14.414;2022-08-19T07:53:51;5.60;;;4.93;;
45760;SDS011;31471;51.040;14.414;2022-08-19T07:58:45;4.63;;;4.05;;
45760;SDS011;31471;51.040;14.414;2022-08-19T08:01:15;5.40;;;4.88;;
45760;SDS011;31471;51.040;14.414;2022-08-19T08:03:45;5.70;;;4.97;;
45760;SDS011;31471;51.040;14.414;2022-08-19T08:06:29;6.20;;;4.55;;
45760;SDS011;31471;51.040;14.414;2022-08-19T08:09:15;6.53;;;5.55;;
45760;SDS011;31471;51.040;14.414;2022-08-19T08:11:55;5.75;;;5.18;;
45760;SDS011;31471;51.040;14.414;2022-08-19T08:16:50;5.82;;;5.05;;
45760;SDS011;31471;51.040;14.414;2022-08-19T08:21:43;7.10;;;5.80;;
45760;SDS011;31471;51.040;14.414;2022-08-19T08:26:35;7.90;;;6.32;;
45760;SDS011;31471;51.040;14.414;2022-08-19T08:31:26;9.25;;;7.38;;
45760;SDS011;31471;51.040;14.414;2022-08-19T08:33:53;8.85;;;7.32;;
45760;SDS011;31471;51.040;14.414;2022-08-19T08:38:44;9.60;;;7.93;;
45760;SDS011;31471;51.040;14.414;2022-08-19T08:41:28;9.68;;;8.15;;
45760;SDS011;31471;51.040;14.414;2022-08-19T08:44:03;9.45;;;8.25;;
45760;SDS011;31471;51.040;14.414;2022-08-19T08:46:39;10.02;;;7.78;;
45760;SDS011;31471;51.040;14.414;2022-08-19T08:52:10;10.48;;;8.10;;
45760;SDS011;31471;51.040;14.414;2022-08-19T08:54:41;9.10;;;8.15;;
45760;SDS011;31471;51.040;14.414;2022-08-19T08:57:14;10.93;;;8.23;;
45760;SDS011;31471;51.040;14.414;2022-08-19T09:00:02;9.32;;;7.55;;
45760;SDS011;31471;51.040;14.414;2022-08-19T09:02:31;10.10;;;8.00;;
45760;SDS011;31471;51.040;14.414;2022-08-19T09:10:29;8.65;;;7.00;;
45760;SDS011;31471;51.040;14.414;2022-08-19T09:13:14;7.60;;;6.78;;
45760;SDS011;31471;51.040;14.414;2022-08-19T09:15:54;7.78;;;6.95;;
45760;SDS011;31471;51.040;14.414;2022-08-19T09:18:54;6.80;;;6.10;;
45760;SDS011;31471;51.040;14.414;2022-08-19T09:21:23;6.32;;;5.72;;
45760;SDS011;31471;51.040;14.414;2022-08-19T09:23:50;6.60;;;5.90;;
45760;SDS011;31471;51.040;14.414;2022-08-19T09:26:17;7.15;;;6.45;;
45760;SDS011;31471;51.040;14.414;2022-08-19T09:28:45;6.50;;;5.85;;
45760;SDS011;31471;51.040;14.414;2022-08-19T09:31:17;7.35;;;6.32;;
45760;SDS011;31471;51.040;14.414;2022-08-19T09:33:47;8.65;;;6.25;;
45760;SDS011;31471;51.040;14.414;2022-08-19T09:36:15;6.70;;;6.00;;
45760;SDS011;31471;51.040;14.414;2022-08-19T09:38:43;6.78;;;6.05;;
45760;SDS011;31471;51.040;14.414;2022-08-19T09:41:11;6.55;;;5.93;;
45760;SDS011;31471;51.040;14.414;2022-08-19T09:43:38;6.82;;;5.55;;
45760;SDS011;31471;51.040;14.414;2022-08-19T09:46:05;6.75;;;5.45;;
45760;SDS011;31471;51.040;14.414;2022-08-19T09:48:32;6.70;;;5.95;;
45760;SDS011;31471;51.040;14.414;2022-08-19T09:51:05;8.25;;;5.38;;
45760;SDS011;31471;51.040;14.414;2022-08-19T09:53:33;8.50;;;6.13;;
45760;SDS011;31471;51.040;14.414;2022-08-19T09:56:00;8.75;;;6.80;;
45760;SDS011;31471;51.040;14.414;2022-08-19T09:58:27;9.18;;;7.50;;
45760;SDS011;31471;51.040;14.414;2022-08-19T10:00:53;10.40;;;7.28;;
45760;SDS011;31471;51.040;14.414;2022-08-19T10:03:19;10.90;;;7.63;;
45760;SDS011;31471;51.040;14.414;2022-08-19T10:05:45;11.10;;;7.88;;
45760;SDS011;31471;51.040;14.414;2022-08-19T10:08:14;12.10;;;8.00;;
45760;SDS011;31471;51.040;14.414;2022-08-19T10:10:41;9.50;;;7.30;;
45760;SDS011;31471;51.040;14.414;2022-08-19T10:13:08;9.55;;;7.65;;
45760;SDS011;31471;51.040;14.414;2022-08-19T10:15:34;11.45;;;8.15;;
45760;SDS011;31471;51.040;14.414;2022-08-19T10:20:26;10.40;;;8.10;;
45760;SDS011;31471;51.040;14.414;2022-08-19T10:22:51;11.05;;;8.20;;
45760;SDS011;31471;51.040;14.414;2022-08-19T10:27:42;10.88;;;8.43;;
45760;SDS011;31471;51.040;14.414;2022-08-19T10:30:08;11.27;;;9.05;;
45760;SDS011;31471;51.040;14.414;2022-08-19T10:32:34;11.68;;;9.02;;
45760;SDS011;31471;51.040;14.414;2022-08-19T10:35:00;10.90;;;8.50;;
45760;SDS011;31471;51.040;14.414;2022-08-19T10:37:27;10.35;;;8.60;;
45760;SDS011;31471;51.040;14.414;2022-08-19T10:39:53;14.50;;;10.27;;
45760;SDS011;31471;51.040;14.414;2022-08-19T10:42:18;11.05;;;9.18;;
45760;SDS011;31471;51.040;14.414;2022-08-19T10:44:44;14.63;;;9.88;;
45760;SDS011;31471;51.040;14.414;2022-08-19T10:47:11;13.13;;;9.88;;
45760;SDS011;31471;51.040;14.414;2022-08-19T10:49:37;12.40;;;9.23;;
45760;SDS011;31471;51.040;14.414;2022-08-19T10:52:22;11.82;;;9.68;;
45760;SDS011;31471;51.040;14.414;2022-08-19T10:55:04;12.40;;;9.07;;
45760;SDS011;31471;51.040;14.414;2022-08-19T10:57:49;12.77;;;10.15;;
45760;SDS011;31471;51.040;14.414;2022-08-19T11:00:16;14.30;;;10.40;;
45760;SDS011;31471;51.040;14.414;2022-08-19T11:02:42;12.27;;;9.73;;
45760;SDS011;31471;51.040;14.414;2022-08-19T11:05:08;11.60;;;9.43;;
45760;SDS011;31471;51.040;14.414;2022-08-19T11:07:38;13.60;;;10.00;;
45760;SDS011;31471;51.040;14.414;2022-08-19T11:10:04;13.88;;;10.82;;
45760;SDS011;31471;51.040;14.414;2022-08-19T11:12:31;13.38;;;9.68;;
45760;SDS011;31471;51.040;14.414;2022-08-19T11:14:58;12.75;;;10.13;;
45760;SDS011;31471;51.040;14.414;2022-08-19T11:17:23;11.68;;;9.82;;
45760;SDS011;31471;51.040;14.414;2022-08-19T11:19:49;13.60;;;9.88;;
45760;SDS011;31471;51.040;14.414;2022-08-19T11:22:15;13.10;;;9.45;;
45760;SDS011;31471;51.040;14.414;2022-08-19T11:24:42;12.85;;;9.95;;
45760;SDS011;31471;51.040;14.414;2022-08-19T11:27:08;14.55;;;9.73;;
45760;SDS011;31471;51.040;14.414;2022-08-19T11:29:35;11.40;;;9.32;;
45760;SDS011;31471;51.040;14.414;2022-08-19T11:32:04;14.43;;;10.73;;
45760;SDS011;31471;51.040;14.414;2022-08-19T11:34:34;13.77;;;10.07;;
45760;SDS011;31471;51.040;14.414;2022-08-19T11:37:00;11.75;;;9.82;;
45760;SDS011;31471;51.040;14.414;2022-08-19T11:39:29;12.57;;;9.90;;
45760;SDS011;31471;51.040;14.414;2022-08-19T11:41:57;12.65;;;9.68;;
45760;SDS011;31471;51.040;14.414;2022-08-19T11:44:23;11.93;;;9.35;;
45760;SDS011;31471;51.040;14.414;2022-08-19T11:46:49;11.70;;;9.65;;
45760;SDS011;31471;51.040;14.414;2022-08-19T11:49:15;15.05;;;10.02;;
45760;SDS011;31471;51.040;14.414;2022-08-19T11:51:43;13.80;;;9.82;;
45760;SDS011;31471;51.040;14.414;2022-08-19T11:54:10;14.65;;;9.90;;
45760;SDS011;31471;51.040;14.414;2022-08-19T11:56:37;13.77;;;10.68;;
45760;SDS011;31471;51.040;14.414;2022-08-19T11:59:04;15.20;;;10.98;;
45760;SDS011;31471;51.040;14.414;2022-08-19T12:01:30;11.77;;;10.23;;
45760;SDS011;31471;51.040;14.414;2022-08-19T12:03:56;13.65;;;10.10;;
45760;SDS011;31471;51.040;14.414;2022-08-19T12:06:27;12.68;;;10.13;;
45760;SDS011;31471;51.040;14.414;2022-08-19T12:08:55;16.15;;;10.52;;
45760;SDS011;31471;51.040;14.414;2022-08-19T12:11:22;11.07;;;9.88;;
45760;SDS011;31471;51.040;14.414;2022-08-19T12:13:48;12.90;;;10.35;;
45760;SDS011;31471;51.040;14.414;2022-08-19T12:16:16;11.88;;;10.32;;
45760;SDS011;31471;51.040;14.414;2022-08-19T12:18:43;12.00;;;9.48;;
45760;SDS011;31471;51.040;14.414;2022-08-19T12:21:11;10.95;;;9.80;;
45760;SDS011;31471;51.040;14.414;2022-08-19T12:23:38;12.60;;;10.25;;
45760;SDS011;31471;51.040;14.414;2022-08-19T12:26:04;11.77;;;10.27;;
45760;SDS011;31471;51.040;14.414;2022-08-19T12:28:30;13.15;;;10.82;;
45760;SDS011;31471;51.040;14.414;2022-08-19T12:30:56;13.55;;;11.15;;
45760;SDS011;31471;51.040;14.414;2022-08-19T12:33:22;13.05;;;10.30;;
45760;SDS011;31471;51.040;14.414;2022-08-19T12:35:51;14.40;;;10.95;;
45760;SDS011;31471;51.040;14.414;2022-08-19T12:38:17;13.80;;;10.77;;
45760;SDS011;31471;51.040;14.414;2022-08-19T12:40:45;13.02;;;10.32;;
45760;SDS011;31471;51.040;14.414;2022-08-19T12:43:11;12.07;;;10.23;;
45760;SDS011;31471;51.040;14.414;2022-08-19T12:45:38;11.43;;;10.23;;
45760;SDS011;31471;51.040;14.414;2022-08-19T12:48:04;12.55;;;9.85;;
45760;SDS011;31471;51.040;14.414;2022-08-19T12:50:30;12.57;;;10.30;;
45760;SDS011;31471;51.040;14.414;2022-08-19T12:52:56;11.80;;;10.15;;
45760;SDS011;31471;51.040;14.414;2022-08-19T12:55:22;13.07;;;9.95;;
45760;SDS011;31471;51.040;14.414;2022-08-19T12:57:49;11.15;;;9.95;;
45760;SDS011;31471;51.040;14.414;2022-08-19T13:00:16;12.15;;;10.40;;
45760;SDS011;31471;51.040;14.414;2022-08-19T13:02:46;12.75;;;10.30;;
45760;SDS011;31471;51.040;14.414;2022-08-19T13:05:16;12.27;;;10.20;;
45760;SDS011;31471;51.040;14.414;2022-08-19T13:07:47;13.10;;;9.85;;
45760;SDS011;31471;51.040;14.414;2022-08-19T13:10:14;11.10;;;9.25;;
45760;SDS011;31471;51.040;14.414;2022-08-19T13:12:42;10.93;;;9.15;;
45760;SDS011;31471;51.040;14.414;2022-08-19T13:15:09;11.05;;;8.60;;
45760;SDS011;31471;51.040;14.414;2022-08-19T13:17:36;14.07;;;9.30;;
45760;SDS011;31471;51.040;14.414;2022-08-19T13:20:02;10.18;;;8.95;;
45760;SDS011;31471;51.040;14.414;2022-08-19T13:22:29;14.88;;;9.95;;
45760;SDS011;31471;51.040;14.414;2022-08-19T13:24:56;13.48;;;10.13;;
45760;SDS011;31471;51.040;14.414;2022-08-19T13:27:21;11.13;;;9.55;;
45760;SDS011;31471;51.040;14.414;2022-08-19T13:29:47;11.57;;;9.15;;
45760;SDS011;31471;51.040;14.414;2022-08-19T13:32:31;12.25;;;9.50;;
45760;SDS011;31471;51.040;14.414;2022-08-19T13:35:15;10.55;;;9.45;;
45760;SDS011;31471;51.040;14.414;2022-08-19T13:37:42;10.63;;;9.50;;
45760;SDS011;31471;51.040;14.414;2022-08-19T13:40:09;10.35;;;9.27;;
45760;SDS011;31471;51.040;14.414;2022-08-19T13:42:37;12.77;;;9.70;;
45760;SDS011;31471;51.040;14.414;2022-08-19T13:45:04;11.63;;;9.45;;
45760;SDS011;31471;51.040;14.414;2022-08-19T13:47:31;11.38;;;9.35;;
45760;SDS011;31471;51.040;14.414;2022-08-19T13:49:59;12.25;;;9.75;;
45760;SDS011;31471;51.040;14.414;2022-08-19T13:52:25;13.00;;;9.50;;
45760;SDS011;31471;51.040;14.414;2022-08-19T13:54:50;12.38;;;10.18;;
45760;SDS011;31471;51.040;14.414;2022-08-19T13:57:16;12.25;;;10.48;;
45760;SDS011;31471;51.040;14.414;2022-08-19T13:59:41;12.80;;;9.82;;
45760;SDS011;31471;51.040;14.414;2022-08-19T14:02:07;13.45;;;10.80;;
45760;SDS011;31471;51.040;14.414;2022-08-19T14:04:33;12.07;;;10.27;;
45760;SDS011;31471;51.040;14.414;2022-08-19T14:06:58;11.65;;;9.93;;
45760;SDS011;31471;51.040;14.414;2022-08-19T14:09:24;10.38;;;9.23;;
45760;SDS011;31471;51.040;14.414;2022-08-19T14:11:49;12.18;;;9.50;;
45760;SDS011;31471;51.040;14.414;2022-08-19T14:14:16;10.63;;;9.07;;
45760;SDS011;31471;51.040;14.414;2022-08-19T14:16:41;10.52;;;9.13;;
45760;SDS011;31471;51.040;14.414;2022-08-19T14:19:07;12.35;;;10.20;;
45760;SDS011;31471;51.040;14.414;2022-08-19T14:21:33;13.02;;;9.30;;
45760;SDS011;31471;51.040;14.414;2022-08-19T14:23:59;11.93;;;9.90;;
45760;SDS011;31471;51.040;14.414;2022-08-19T14:26:25;11.55;;;9.55;;
45760;SDS011;31471;51.040;14.414;2022-08-19T14:28:51;13.43;;;11.13;;
45760;SDS011;31471;51.040;14.414;2022-08-19T14:31:18;14.23;;;10.90;;
45760;SDS011;31471;51.040;14.414;2022-08-19T14:33:47;12.75;;;11.30;;
45760;SDS011;31471;51.040;14.414;2022-08-19T14:36:13;13.13;;;11.43;;
45760;SDS011;31471;51.040;14.414;2022-08-19T14:38:39;12.75;;;10.63;;
45760;SDS011;31471;51.040;14.414;2022-08-19T14:43:41;15.32;;;12.30;;
45760;SDS011;31471;51.040;14.414;2022-08-19T14:46:10;13.05;;;11.48;;
45760;SDS011;31471;51.040;14.414;2022-08-19T14:48:37;15.63;;;11.65;;
45760;SDS011;31471;51.040;14.414;2022-08-19T14:51:03;12.55;;;11.02;;
45760;SDS011;31471;51.040;14.414;2022-08-19T14:53:30;13.80;;;11.80;;
45760;SDS011;31471;51.040;14.414;2022-08-19T14:55:58;14.48;;;12.55;;
45760;SDS011;31471;51.040;14.414;2022-08-19T14:58:24;16.98;;;12.50;;
45760;SDS011;31471;51.040;14.414;2022-08-19T15:00:50;14.65;;;11.73;;
45760;SDS011;31471;51.040;14.414;2022-08-19T15:03:16;14.95;;;11.65;;
45760;SDS011;31471;51.040;14.414;2022-08-19T15:05:41;14.88;;;11.95;;
45760;SDS011;31471;51.040;14.414;2022-08-19T15:08:07;18.85;;;13.93;;
45760;SDS011;31471;51.040;14.414;2022-08-19T15:10:32;17.77;;;13.73;;
45760;SDS011;31471;51.040;14.414;2022-08-19T15:12:58;17.95;;;14.15;;
45760;SDS011;31471;51.040;14.414;2022-08-19T15:15:24;21.90;;;16.23;;
45760;SDS011;31471;51.040;14.414;2022-08-19T15:17:50;17.90;;;14.38;;
45760;SDS011;31471;51.040;14.414;2022-08-19T15:20:17;19.23;;;14.68;;
45760;SDS011;31471;51.040;14.414;2022-08-19T15:22:45;22.33;;;15.98;;
45760;SDS011;31471;51.040;14.414;2022-08-19T15:25:11;21.75;;;16.58;;
45760;SDS011;31471;51.040;14.414;2022-08-19T15:27:39;21.25;;;15.85;;
45760;SDS011;31471;51.040;14.414;2022-08-19T15:30:06;22.25;;;16.15;;
45760;SDS011;31471;51.040;14.414;2022-08-19T15:32:33;22.40;;;15.85;;
45760;SDS011;31471;51.040;14.414;2022-08-19T15:34:59;21.02;;;15.68;;
45760;SDS011;31471;51.040;14.414;2022-08-19T15:37:27;23.85;;;16.40;;
45760;SDS011;31471;51.040;14.414;2022-08-19T15:39:52;23.15;;;17.00;;
45760;SDS011;31471;51.040;14.414;2022-08-19T15:42:18;22.27;;;16.58;;
45760;SDS011;31471;51.040;14.414;2022-08-19T15:44:45;25.02;;;17.73;;
45760;SDS011;31471;51.040;14.414;2022-08-19T15:47:12;22.13;;;16.42;;
45760;SDS011;31471;51.040;14.414;2022-08-19T15:49:38;26.73;;;18.33;;
45760;SDS011;31471;51.040;14.414;2022-08-19T15:52:03;22.33;;;16.23;;
45760;SDS011;31471;51.040;14.414;2022-08-19T15:54:31;24.02;;;16.17;;
45760;SDS011;31471;51.040;14.414;2022-08-19T15:56:57;22.38;;;15.43;;
45760;SDS011;31471;51.040;14.414;2022-08-19T15:59:41;19.58;;;14.27;;
45760;SDS011;31471;51.040;14.414;2022-08-19T16:02:26;22.92;;;16.23;;
45760;SDS011;31471;51.040;14.414;2022-08-19T16:05:14;21.10;;;15.77;;
45760;SDS011;31471;51.040;14.414;2022-08-19T16:08:00;24.75;;;16.38;;
45760;SDS011;31471;51.040;14.414;2022-08-19T16:10:26;22.17;;;15.27;;
45760;SDS011;31471;51.040;14.414;2022-08-19T16:12:52;21.27;;;15.98;;
45760;SDS011;31471;51.040;14.414;2022-08-19T16:15:18;22.73;;;15.43;;
45760;SDS011;31471;51.040;14.414;2022-08-19T16:17:45;22.75;;;16.73;;
45760;SDS011;31471;51.040;14.414;2022-08-19T16:20:12;26.88;;;17.85;;
45760;SDS011;31471;51.040;14.414;2022-08-19T16:22:40;22.60;;;16.38;;
45760;SDS011;31471;51.040;14.414;2022-08-19T16:25:07;23.17;;;16.52;;
45760;SDS011;31471;51.040;14.414;2022-08-19T16:27:33;26.38;;;16.45;;
45760;SDS011;31471;51.040;14.414;2022-08-19T16:29:59;22.80;;;17.45;;
45760;SDS011;31471;51.040;14.414;2022-08-19T16:32:25;22.75;;;16.88;;
45760;SDS011;31471;51.040;14.414;2022-08-19T16:34:51;26.50;;;17.27;;
45760;SDS011;31471;51.040;14.414;2022-08-19T16:37:16;23.48;;;16.60;;
45760;SDS011;31471;51.040;14.414;2022-08-19T16:39:42;23.77;;;17.70;;
45760;SDS011;31471;51.040;14.414;2022-08-19T16:42:08;24.20;;;17.00;;
45760;SDS011;31471;51.040;14.414;2022-08-19T16:44:35;24.17;;;16.27;;